Strona główna
METAR-TAF:

METAR-TAF

Lotnisko :

Akra, Ghana

Port lotniczy Akra

Szerokość geograficzna: 05-36N, Długość geograficzna: 000-10W, wysokość: 68 m

Aktualna obserwacja pogody

Raport powstał 1 godzina i 2 minut temu, godzina 17:00 UTC
Wiatr 14 kt od południowo-południowy zachód
Temperatura 29°C
Wilgotność 74%
Ciśnienie 1008 hPa
Widzialność: 5000 m
zmętnienie

METAR: DGAA 171700Z 20014KT 5000 HZ NSC 29/24 Q1008 NOSIG

czas: 18:02 (18:02 UTC)

Prognoza

Raport powstał 1 godzina i 2 minut temu, godzina 17:00 UTC
Prognoza ważna od 17 godzina 18 UTC do 18 godzina 24 UTC
Wiatr 10 kt od zachodnio-południowy zachód
Widzialność: 8000 m
Stopniowe zmiany
od 18 godzina 02 UTC do 18 godzina 04 UTC
Wiatr 5 kt od zachód
Stopniowe zmiany
od 18 godzina 06 UTC do 18 godzina 08 UTC
Widzialność: 3000 m
zamglenie
Od UTC
Wiatr 15 kt od południe
Widzialność: 5000 m
Mało chmury na wysokości 3000 ft
zmętnienie

TAF: DGAA 171700Z 1718/1824 24010KT 8000 NSC BECMG 1802/1804 27005KT BECMG 1806/1808 3000 BR FM 181200 19015KT 5000 HZ FEW030

Obserwacja i prognoza pogody dla ponad 4000 lotnisk (raport METAR i TAF).

Dostępne stacje oznaczono żółtymi i czerwonymi punktami na mapie.

Najedź kursorem aby zobaczyć nazwę stacji.

Kliknij aby zobaczyć obserwacje i prognozy pogody.

Aby zmienić mapę: kliknij na zielony przycisk z czarnym krzyżykiem, aby powiększyć; na zielony przycisk z myślnikiem, aby pomniejszyć; na zielone strzałki, aby przejść do map sąsiednich.


METAR-TAF: